Time;durP1;ratioP1;P1;durP2;ratioP2;P2;SDS_P1;SDS_P2;PMS_P1;PMS_P2;Temp;Humidity;BMP_temperature;BMP_pressure;BME280_temperature;BME280_humidity;BME280_pressure;Samples;Min_cycle;Max_cycle;Signal;HPM_P1;HPM_P2
2023/04/12 00:01:49;;;;;;;;;;;18.80;45.50;;;;;;4993342;28;20021;-53
2023/04/12 00:04:15;;;;;;;;;;;18.80;45.50;;;;;;5042267;28;20373;-54
2023/04/12 00:06:47;;;;;;;;;;;18.80;45.50;;;;;;5007326;28;19917;-54
2023/04/12 00:09:13;;;;;;;;;;;18.70;45.60;;;;;;4996451;28;19921;-54
2023/04/12 00:11:38;;;;;;;;;;;18.70;45.50;;;;;;5005431;28;19913;-54
2023/04/12 00:14:04;;;;;;;;;;;18.70;45.60;;;;;;4979164;28;19918;-54
2023/04/12 00:16:29;;;;;;;;;;;18.60;45.80;;;;;;4993200;28;20032;-54
2023/04/12 00:18:56;;;;;;;;;;;18.60;45.70;;;;;;5010278;28;19913;-54
2023/04/12 00:21:22;;;;;;;;;;;18.60;45.70;;;;;;5004115;28;19972;-54
2023/04/12 00:23:48;;;;;;;;;;;18.70;45.40;;;;;;5002410;28;19972;-54
2023/04/12 00:26:13;;;;;;;;;;;18.70;45.10;;;;;;5010427;28;19960;-54
2023/04/12 00:28:39;;;;;;;;;;;18.70;45.10;;;;;;5030344;28;19924;-54
2023/04/12 00:31:05;;;;;;;;;;;18.70;45.20;;;;;;5006638;28;19918;-54
2023/04/12 00:33:32;;;;;;;;;;;18.60;45.20;;;;;;5003150;28;19920;-54
2023/04/12 00:35:57;;;;;;;;;;;18.60;45.10;;;;;;5003572;28;19914;-54
2023/04/12 00:38:22;;;;;;;;;;;18.60;45.10;;;;;;5002074;28;19917;-54
2023/04/12 00:40:48;;;;;;;;;;;18.60;45.30;;;;;;5012246;28;19920;-54
2023/04/12 00:43:17;;;;;;;;;;;18.50;45.40;;;;;;5039488;28;19925;-54
2023/04/12 00:45:43;;;;;;;;;;;18.50;45.70;;;;;;5010154;28;19917;-54
2023/04/12 00:48:09;;;;;;;;;;;18.40;45.70;;;;;;5000895;28;19976;-54
2023/04/12 00:50:34;;;;;;;;;;;18.40;45.80;;;;;;5024168;28;19925;-54
2023/04/12 00:53:00;;;;;;;;;;;18.30;45.70;;;;;;4992645;28;20012;-54
2023/04/12 00:55:25;;;;;;;;;;;18.30;46.00;;;;;;5037173;28;20385;-54
2023/04/12 00:57:51;;;;;;;;;;;18.30;46.10;;;;;;5006760;28;20367;-54
2023/04/12 01:00:17;;;;;;;;;;;18.30;46.00;;;;;;4991524;28;19957;-53
2023/04/12 01:02:47;;;;;;;;;;;18.20;46.00;;;;;;4998519;28;19975;-53
2023/04/12 01:05:13;;;;;;;;;;;18.20;46.00;;;;;;5000614;28;19918;-54
2023/04/12 01:07:54;;;;;;;;;;;18.20;45.80;;;;;;5025642;28;19913;-54
2023/04/12 01:10:26;;;;;;;;;;;18.20;46.00;;;;;;5039966;28;19977;-54
2023/04/12 01:13:06;;;;;;;;;;;18.30;45.40;;;;;;5009950;28;20350;-54
2023/04/12 01:15:31;;;;;;;;;;;18.40;45.30;;;;;;5033599;28;20378;-54
2023/04/12 01:18:16;;;;;;;;;;;18.50;44.80;;;;;;4993728;28;19968;-54
2023/04/12 01:20:47;;;;;;;;;;;18.70;45.00;;;;;;4998318;28;19913;-54
2023/04/12 01:23:28;;;;;;;;;;;19.10;44.30;;;;;;5029264;28;19917;-54
2023/04/12 01:26:02;;;;;;;;;;;19.40;43.80;;;;;;4999272;28;19918;-51
2023/04/12 01:28:31;;;;;;;;;;;19.80;43.00;;;;;;5034967;28;19921;-54
2023/04/12 01:30:56;;;;;;;;;;;20.30;42.40;;;;;;5007424;28;20362;-54
2023/04/12 01:33:22;;;;;;;;;;;20.80;41.50;;;;;;5025213;28;19924;-54
2023/04/12 01:35:47;;;;;;;;;;;21.30;40.30;;;;;;5006126;28;21649;-54
2023/04/12 01:38:13;;;;;;;;;;;21.90;39.40;;;;;;5007350;28;19917;-54
2023/04/12 01:40:41;;;;;;;;;;;22.30;38.90;;;;;;5008731;28;19960;-54
2023/04/12 01:43:07;;;;;;;;;;;22.40;38.50;;;;;;5013493;28;20013;-54
2023/04/12 01:45:32;;;;;;;;;;;22.30;38.60;;;;;;5004596;28;19914;-54
2023/04/12 01:47:58;;;;;;;;;;;22.20;38.90;;;;;;5004497;28;19968;-55
2023/04/12 01:50:36;;;;;;;;;;;21.90;39.20;;;;;;5005509;28;20012;-54
2023/04/12 01:53:02;;;;;;;;;;;21.60;39.60;;;;;;4999483;28;20448;-54
2023/04/12 01:55:28;;;;;;;;;;;21.40;40.10;;;;;;4993755;28;20009;-54
2023/04/12 01:57:54;;;;;;;;;;;21.20;40.50;;;;;;5002281;28;20357;-54
2023/04/12 02:00:19;;;;;;;;;;;21.00;40.80;;;;;;4989948;28;19935;-54
2023/04/12 02:02:45;;;;;;;;;;;20.80;41.10;;;;;;4999500;28;20286;-54
2023/04/12 02:05:10;;;;;;;;;;;20.70;41.30;;;;;;5001104;28;19914;-54
2023/04/12 02:07:36;;;;;;;;;;;20.50;41.50;;;;;;5042716;28;20324;-54
2023/04/12 02:10:02;;;;;;;;;;;20.40;41.60;;;;;;5025804;28;20033;-54
2023/04/12 02:12:27;;;;;;;;;;;20.30;41.80;;;;;;5038487;28;19920;-54
2023/04/12 02:14:53;;;;;;;;;;;20.30;41.80;;;;;;5008390;28;19918;-54
2023/04/12 02:17:18;;;;;;;;;;;20.20;41.80;;;;;;4990899;28;19918;-54
2023/04/12 02:19:44;;;;;;;;;;;20.20;42.00;;;;;;5008367;28;19917;-54
2023/04/12 02:22:10;;;;;;;;;;;20.20;41.90;;;;;;5010416;28;19944;-54
2023/04/12 02:24:35;;;;;;;;;;;20.20;42.00;;;;;;5019716;28;20047;-54
2023/04/12 02:27:01;;;;;;;;;;;20.30;41.90;;;;;;5011880;28;19913;-54
2023/04/12 02:29:26;;;;;;;;;;;20.40;41.50;;;;;;5011523;28;19936;-54
2023/04/12 02:31:52;;;;;;;;;;;20.60;41.20;;;;;;5006383;28;19914;-54
2023/04/12 02:34:17;;;;;;;;;;;20.70;40.80;;;;;;5005376;28;19919;-54
2023/04/12 02:36:46;;;;;;;;;;;20.90;40.50;;;;;;5011721;28;19918;-54
2023/04/12 02:39:12;;;;;;;;;;;20.90;40.50;;;;;;5008040;28;20561;-54
2023/04/12 02:41:38;;;;;;;;;;;20.90;40.30;;;;;;5009277;28;19914;-54
2023/04/12 02:44:03;;;;;;;;;;;20.80;40.50;;;;;;5009841;28;19933;-54
2023/04/12 02:46:29;;;;;;;;;;;20.70;40.60;;;;;;5003417;28;19918;-54
2023/04/12 02:48:54;;;;;;;;;;;20.60;40.90;;;;;;5008128;28;19941;-54
2023/04/12 02:51:20;;;;;;;;;;;20.40;41.00;;;;;;5005385;28;19918;-54
2023/04/12 02:53:45;;;;;;;;;;;20.30;41.40;;;;;;4998145;28;19918;-54
2023/04/12 02:56:11;;;;;;;;;;;20.20;41.50;;;;;;5024503;28;20004;-54
2023/04/12 02:58:37;;;;;;;;;;;20.20;41.70;;;;;;5010611;28;19955;-55
2023/04/12 03:01:06;;;;;;;;;;;20.10;41.70;;;;;;5009501;28;20405;-54
2023/04/12 03:03:32;;;;;;;;;;;20.00;41.70;;;;;;4992179;28;19918;-54
2023/04/12 03:05:57;;;;;;;;;;;20.00;41.70;;;;;;5004139;28;20208;-54
2023/04/12 03:08:22;;;;;;;;;;;19.90;41.50;;;;;;5009925;28;20378;-53
2023/04/12 03:10:48;;;;;;;;;;;20.00;41.90;;;;;;5005703;28;20370;-52
2023/04/12 03:13:13;;;;;;;;;;;20.00;41.70;;;;;;4998720;28;19972;-54
2023/04/12 03:15:39;;;;;;;;;;;20.10;41.40;;;;;;4994669;28;19921;-52
2023/04/12 03:18:04;;;;;;;;;;;20.30;41.10;;;;;;5006147;28;19917;-53
2023/04/12 03:20:30;;;;;;;;;;;20.50;40.80;;;;;;4993922;28;19953;-53
2023/04/12 03:22:55;;;;;;;;;;;20.60;40.40;;;;;;5007398;28;20345;-53
2023/04/12 03:25:21;;;;;;;;;;;20.80;40.30;;;;;;5041965;28;19955;-53
2023/04/12 03:27:46;;;;;;;;;;;20.80;40.10;;;;;;5002933;28;19914;-52
2023/04/12 03:30:12;;;;;;;;;;;20.80;40.00;;;;;;5008849;28;20017;-53
2023/04/12 03:32:41;;;;;;;;;;;20.70;40.30;;;;;;4999589;28;20386;-53
2023/04/12 03:35:07;;;;;;;;;;;20.60;40.40;;;;;;5033103;28;19921;-53
2023/04/12 03:37:33;;;;;;;;;;;20.50;40.50;;;;;;4993183;28;19910;-53
2023/04/12 03:39:58;;;;;;;;;;;20.30;40.60;;;;;;5007114;28;19922;-53
2023/04/12 03:42:24;;;;;;;;;;;20.20;41.00;;;;;;4993120;28;19918;-52
2023/04/12 03:44:51;;;;;;;;;;;20.10;41.20;;;;;;5005365;28;20251;-53
2023/04/12 03:47:16;;;;;;;;;;;20.00;41.20;;;;;;5043098;28;20301;-52
2023/04/12 03:49:42;;;;;;;;;;;19.90;41.20;;;;;;4998572;28;20151;-52
2023/04/12 03:52:07;;;;;;;;;;;19.90;41.30;;;;;;4995241;28;19921;-53
2023/04/12 03:54:33;;;;;;;;;;;19.90;41.30;;;;;;4987855;28;19925;-53
2023/04/12 03:56:59;;;;;;;;;;;19.90;41.30;;;;;;4998582;28;19980;-53
2023/04/12 03:59:24;;;;;;;;;;;19.90;41.30;;;;;;4993770;28;20373;-52
2023/04/12 04:01:50;;;;;;;;;;;20.10;41.00;;;;;;4998802;28;20013;-52
2023/04/12 04:04:15;;;;;;;;;;;20.30;40.70;;;;;;4994366;28;19914;-52
2023/04/12 04:06:41;;;;;;;;;;;20.40;40.30;;;;;;5003903;28;19914;-52
2023/04/12 04:09:06;;;;;;;;;;;20.60;40.60;;;;;;5000136;28;19921;-53
2023/04/12 04:11:32;;;;;;;;;;;20.80;39.80;;;;;;4996063;28;19914;-53
2023/04/12 04:13:57;;;;;;;;;;;20.80;39.60;;;;;;4993314;28;19994;-52
2023/04/12 04:16:22;;;;;;;;;;;20.80;39.60;;;;;;4991415;28;19918;-53
2023/04/12 04:18:48;;;;;;;;;;;20.70;39.60;;;;;;5008920;28;19948;-52
2023/04/12 04:21:13;;;;;;;;;;;20.60;39.80;;;;;;5040201;28;19922;-53
2023/04/12 04:23:43;;;;;;;;;;;20.40;40.00;;;;;;4997292;28;20465;-52
2023/04/12 04:26:09;;;;;;;;;;;20.30;40.20;;;;;;4997254;28;20392;-53
2023/04/12 04:28:36;;;;;;;;;;;20.20;40.40;;;;;;5009662;28;20008;-52
2023/04/12 04:31:05;;;;;;;;;;;20.10;40.70;;;;;;5004873;28;19913;-53
2023/04/12 04:33:33;;;;;;;;;;;19.90;40.70;;;;;;4992305;28;19921;-53
2023/04/12 04:35:58;;;;;;;;;;;19.90;40.90;;;;;;5003682;28;19914;-52
2023/04/12 04:38:25;;;;;;;;;;;19.80;41.00;;;;;;5007097;28;20086;-53
2023/04/12 04:40:54;;;;;;;;;;;19.80;41.00;;;;;;4996815;28;19914;-53
2023/04/12 04:43:20;;;;;;;;;;;19.70;40.90;;;;;;5000262;28;19926;-52
2023/04/12 04:45:48;;;;;;;;;;;19.80;41.00;;;;;;5007141;28;19909;-52
2023/04/12 04:48:13;;;;;;;;;;;19.90;40.80;;;;;;4997281;28;19917;-53
2023/04/12 04:50:39;;;;;;;;;;;20.10;40.50;;;;;;5002896;28;19920;-52
2023/04/12 04:53:05;;;;;;;;;;;20.30;40.20;;;;;;4991978;28;19922;-52
2023/04/12 04:55:30;;;;;;;;;;;20.50;39.70;;;;;;4998626;28;19913;-52
2023/04/12 04:57:56;;;;;;;;;;;20.60;39.50;;;;;;4991852;28;20275;-53
2023/04/12 05:00:24;;;;;;;;;;;20.70;39.30;;;;;;4991424;28;20363;-52
2023/04/12 05:02:50;;;;;;;;;;;20.70;39.30;;;;;;4999275;28;20338;-53
2023/04/12 05:05:15;;;;;;;;;;;20.70;39.30;;;;;;5006981;28;19945;-53
2023/04/12 05:07:42;;;;;;;;;;;20.50;39.30;;;;;;4997771;28;19910;-53
2023/04/12 05:10:08;;;;;;;;;;;20.40;39.60;;;;;;4997802;28;19917;-53
2023/04/12 05:12:33;;;;;;;;;;;20.30;39.80;;;;;;5003354;28;20637;-52
2023/04/12 05:14:59;;;;;;;;;;;20.20;40.00;;;;;;5013618;28;20348;-52
2023/04/12 05:17:24;;;;;;;;;;;20.00;40.20;;;;;;5000948;28;19913;-53
2023/04/12 05:19:50;;;;;;;;;;;20.00;40.30;;;;;;5009057;28;19914;-53
2023/04/12 05:22:19;;;;;;;;;;;19.90;40.30;;;;;;5007170;28;19917;-53
2023/04/12 05:24:44;;;;;;;;;;;19.80;40.30;;;;;;5005095;28;20369;-52
2023/04/12 05:27:10;;;;;;;;;;;19.80;40.40;;;;;;5006415;28;19952;-52
2023/04/12 05:29:36;;;;;;;;;;;19.70;40.40;;;;;;5037714;28;19910;-52
2023/04/12 05:32:01;;;;;;;;;;;19.80;40.50;;;;;;5005814;28;20290;-53
2023/04/12 05:34:27;;;;;;;;;;;19.90;40.40;;;;;;5011281;28;19913;-53
2023/04/12 05:36:52;;;;;;;;;;;20.10;40.00;;;;;;5008926;28;19910;-53
2023/04/12 05:39:17;;;;;;;;;;;20.30;39.50;;;;;;5005647;28;19922;-53
2023/04/12 05:41:43;;;;;;;;;;;20.50;39.30;;;;;;4999374;28;20003;-53
2023/04/12 05:44:08;;;;;;;;;;;20.70;39.00;;;;;;5011475;28;19976;-53
2023/04/12 05:46:35;;;;;;;;;;;20.70;38.80;;;;;;5002800;28;19917;-53
2023/04/12 05:49:00;;;;;;;;;;;20.70;38.90;;;;;;5005991;28;19914;-52
2023/04/12 05:51:26;;;;;;;;;;;20.70;39.00;;;;;;5001032;28;19933;-52
2023/04/12 05:53:51;;;;;;;;;;;20.50;39.00;;;;;;4997263;28;19917;-53
2023/04/12 05:56:17;;;;;;;;;;;20.40;39.20;;;;;;5030802;28;19936;-53
2023/04/12 05:58:42;;;;;;;;;;;20.30;39.30;;;;;;5003042;28;19956;-52
2023/04/12 06:01:07;;;;;;;;;;;20.20;39.70;;;;;;4991190;28;19932;-53
2023/04/12 06:03:33;;;;;;;;;;;20.10;39.90;;;;;;4993201;28;19918;-53
2023/04/12 06:05:58;;;;;;;;;;;19.90;40.00;;;;;;5004753;28;20483;-53
2023/04/12 06:08:24;;;;;;;;;;;19.80;40.30;;;;;;5013768;28;19936;-53
2023/04/12 06:10:49;;;;;;;;;;;19.70;40.40;;;;;;5021659;28;19913;-53
2023/04/12 06:13:15;;;;;;;;;;;19.60;40.60;;;;;;4994740;28;19948;-53
2023/04/12 06:15:40;;;;;;;;;;;19.60;40.60;;;;;;4988866;28;19918;-53
2023/04/12 06:18:06;;;;;;;;;;;19.70;40.50;;;;;;4996553;28;19913;-53
2023/04/12 06:20:31;;;;;;;;;;;19.70;40.40;;;;;;5001333;28;19914;-53
2023/04/12 06:22:57;;;;;;;;;;;19.90;40.20;;;;;;4987297;28;19924;-53
2023/04/12 06:25:23;;;;;;;;;;;20.10;39.90;;;;;;5002881;28;19997;-53
2023/04/12 06:27:48;;;;;;;;;;;20.30;39.30;;;;;;4998418;28;19913;-53
2023/04/12 06:30:14;;;;;;;;;;;20.50;39.00;;;;;;4993458;28;19975;-53
2023/04/12 06:32:39;;;;;;;;;;;20.70;38.50;;;;;;4994128;28;20009;-53
2023/04/12 06:35:05;;;;;;;;;;;20.90;38.20;;;;;;5003544;28;20338;-53
2023/04/12 06:37:30;;;;;;;;;;;21.10;37.90;;;;;;4994828;28;19910;-53
2023/04/12 06:39:56;;;;;;;;;;;21.10;37.90;;;;;;4994153;28;19926;-53
2023/04/12 06:42:21;;;;;;;;;;;21.10;37.80;;;;;;4994314;28;19914;-53
2023/04/12 06:44:47;;;;;;;;;;;21.20;37.80;;;;;;5010527;28;19914;-53
2023/04/12 06:47:12;;;;;;;;;;;21.20;37.70;;;;;;4985440;28;19921;-53
2023/04/12 06:49:38;;;;;;;;;;;21.30;37.50;;;;;;4992996;28;19914;-53
2023/04/12 06:52:03;;;;;;;;;;;21.40;37.40;;;;;;4987149;28;20287;-53
2023/04/12 06:54:29;;;;;;;;;;;21.30;37.50;;;;;;4996949;28;19924;-53
2023/04/12 06:56:56;;;;;;;;;;;21.20;37.60;;;;;;4991605;28;19917;-53
2023/04/12 06:59:21;;;;;;;;;;;21.20;37.50;;;;;;4991791;28;19917;-52
2023/04/12 07:01:47;;;;;;;;;;;21.10;38.00;;;;;;4992547;28;20363;-54
2023/04/12 07:04:12;;;;;;;;;;;21.00;38.30;;;;;;5026680;28;20306;-53
2023/04/12 07:06:38;;;;;;;;;;;20.90;38.50;;;;;;4992510;28;19914;-53
2023/04/12 07:09:03;;;;;;;;;;;20.70;38.60;;;;;;5005718;28;20012;-54
2023/04/12 07:11:30;;;;;;;;;;;20.60;39.00;;;;;;4988006;28;20378;-52
2023/04/12 07:13:57;;;;;;;;;;;20.40;39.30;;;;;;4983725;28;19932;-53
2023/04/12 07:16:23;;;;;;;;;;;20.30;39.90;;;;;;4989104;28;19918;-54
2023/04/12 07:18:49;;;;;;;;;;;20.20;40.00;;;;;;4990027;28;19922;-54
2023/04/12 07:21:16;;;;;;;;;;;20.10;40.20;;;;;;4998720;28;19924;-54
2023/04/12 07:23:41;;;;;;;;;;;20.00;40.20;;;;;;4993152;28;19918;-53
2023/04/12 07:26:07;;;;;;;;;;;19.90;40.40;;;;;;4988860;28;19922;-54
2023/04/12 07:28:34;;;;;;;;;;;19.90;40.30;;;;;;4989551;28;19921;-53
2023/04/12 07:31:00;;;;;;;;;;;19.90;40.60;;;;;;4991257;28;19972;-54
2023/04/12 07:33:25;;;;;;;;;;;19.90;40.60;;;;;;4992688;28;19918;-53
2023/04/12 07:35:51;;;;;;;;;;;20.00;40.40;;;;;;4997291;28;19959;-53
2023/04/12 07:38:16;;;;;;;;;;;20.20;40.10;;;;;;4994941;28;19926;-53
2023/04/12 07:40:42;;;;;;;;;;;20.40;39.70;;;;;;5023555;28;20394;-54
2023/04/12 07:43:07;;;;;;;;;;;20.60;39.30;;;;;;4990810;28;19934;-54
2023/04/12 07:45:35;;;;;;;;;;;20.80;39.00;;;;;;4992203;28;19921;-54
2023/04/12 07:48:02;;;;;;;;;;;20.90;38.70;;;;;;4991052;28;19928;-54
2023/04/12 07:50:27;;;;;;;;;;;21.00;38.50;;;;;;4985069;28;19921;-54
2023/04/12 07:52:53;;;;;;;;;;;21.00;38.40;;;;;;5004643;28;19917;-54
2023/04/12 07:55:19;;;;;;;;;;;21.00;38.60;;;;;;5002292;28;19917;-54
2023/04/12 07:57:44;;;;;;;;;;;20.80;38.90;;;;;;4996487;28;19921;-53
2023/04/12 08:00:10;;;;;;;;;;;20.70;38.90;;;;;;4998478;28;19918;-53
2023/04/12 08:02:36;;;;;;;;;;;20.60;39.30;;;;;;4991409;28;19922;-53
2023/04/12 08:05:01;;;;;;;;;;;20.40;39.20;;;;;;4987247;28;19956;-53
2023/04/12 08:07:27;;;;;;;;;;;20.20;39.60;;;;;;4990400;28;19918;-52
2023/04/12 08:09:52;;;;;;;;;;;20.00;40.00;;;;;;4992753;28;19961;-54
2023/04/12 08:12:19;;;;;;;;;;;19.80;39.80;;;;;;4981525;28;19922;-54
2023/04/12 08:14:45;;;;;;;;;;;19.70;39.70;;;;;;4982764;28;19965;-54
2023/04/12 08:17:10;;;;;;;;;;;19.80;39.90;;;;;;4988670;28;20019;-53
2023/04/12 08:19:36;;;;;;;;;;;20.00;39.70;;;;;;4985921;28;19922;-54
2023/04/12 08:22:01;;;;;;;;;;;20.30;39.20;;;;;;4991116;28;19922;-54
2023/04/12 08:24:27;;;;;;;;;;;20.50;38.80;;;;;;4994372;28;19921;-53
2023/04/12 08:26:52;;;;;;;;;;;20.80;38.40;;;;;;4989746;28;19961;-52
2023/04/12 08:29:18;;;;;;;;;;;21.10;38.30;;;;;;4993446;28;19914;-53
2023/04/12 08:31:43;;;;;;;;;;;21.30;38.00;;;;;;4987207;28;19917;-53
2023/04/12 08:34:09;;;;;;;;;;;21.40;37.80;;;;;;5021246;28;20286;-54
2023/04/12 08:36:34;;;;;;;;;;;21.40;37.80;;;;;;4983494;28;20421;-52
2023/04/12 08:39:00;;;;;;;;;;;21.40;38.00;;;;;;4988408;28;19929;-52
2023/04/12 08:41:26;;;;;;;;;;;21.40;38.10;;;;;;5002086;28;20278;-53
2023/04/12 08:43:51;;;;;;;;;;;21.30;38.30;;;;;;5002822;28;19917;-53
2023/04/12 08:46:17;;;;;;;;;;;21.20;38.60;;;;;;4990018;28;20386;-54
2023/04/12 08:48:44;;;;;;;;;;;21.10;38.80;;;;;;5029281;28;19977;-53
2023/04/12 08:51:16;;;;;;;;;;;21.00;39.00;;;;;;4989321;28;20382;-54
2023/04/12 08:53:41;;;;;;;;;;;21.00;39.30;;;;;;4995402;28;19914;-54
2023/04/12 08:56:09;;;;;;;;;;;20.90;39.50;;;;;;4987193;28;19915;-53
2023/04/12 08:58:35;;;;;;;;;;;20.90;39.60;;;;;;4995449;28;20020;-54
2023/04/12 09:01:01;;;;;;;;;;;21.40;38.60;;;;;;5009651;28;19918;-54
2023/04/12 09:03:28;;;;;;;;;;;22.20;37.60;;;;;;4998441;28;19941;-53
2023/04/12 09:05:54;;;;;;;;;;;22.70;36.60;;;;;;4998396;28;19918;-53
2023/04/12 09:08:19;;;;;;;;;;;23.10;36.00;;;;;;4991693;28;20313;-54
2023/04/12 09:10:45;;;;;;;;;;;23.30;35.70;;;;;;5000165;28;19987;-53
2023/04/12 09:13:10;;;;;;;;;;;23.50;35.60;;;;;;4998549;28;19913;-52
2023/04/12 09:15:36;;;;;;;;;;;23.50;35.40;;;;;;4999430;28;19917;-53
2023/04/12 09:18:02;;;;;;;;;;;23.60;35.60;;;;;;5032151;28;19921;-52
2023/04/12 09:20:27;;;;;;;;;;;23.70;35.40;;;;;;5000209;28;19929;-53
2023/04/12 09:22:54;;;;;;;;;;;23.70;35.40;;;;;;5027042;28;19921;-54
2023/04/12 09:25:40;;;;;;;;;;;23.70;35.50;;;;;;5033481;28;19925;-53
2023/04/12 09:28:21;;;;;;;;;;;23.60;35.70;;;;;;4995800;28;19932;-54
2023/04/12 09:30:52;;;;;;;;;;;23.50;35.70;;;;;;4997799;28;19925;-53
2023/04/12 09:33:18;;;;;;;;;;;23.50;35.80;;;;;;4994183;28;19914;-54
2023/04/12 09:35:44;;;;;;;;;;;23.50;36.00;;;;;;4992346;28;19917;-54
2023/04/12 09:38:09;;;;;;;;;;;23.50;36.10;;;;;;4991410;28;19917;-53
2023/04/12 09:40:35;;;;;;;;;;;23.50;36.00;;;;;;4992941;28;20378;-55
2023/04/12 09:43:01;;;;;;;;;;;23.50;36.00;;;;;;4990822;28;19925;-54
2023/04/12 09:45:27;;;;;;;;;;;23.50;36.20;;;;;;5002378;28;19953;-53
2023/04/12 09:47:53;;;;;;;;;;;23.40;36.10;;;;;;4995829;28;20389;-54
2023/04/12 09:50:21;;;;;;;;;;;23.20;36.10;;;;;;4998738;28;19914;-53
2023/04/12 09:52:47;;;;;;;;;;;22.90;36.80;;;;;;5023842;28;19917;-54
2023/04/12 09:55:12;;;;;;;;;;;22.60;37.30;;;;;;4996072;28;19929;-54
2023/04/12 09:57:41;;;;;;;;;;;22.60;37.60;;;;;;4994668;28;19914;-54
2023/04/12 10:00:11;;;;;;;;;;;22.70;37.30;;;;;;4993995;28;19917;-54
2023/04/12 10:02:37;;;;;;;;;;;23.00;36.20;;;;;;4993203;28;20366;-53
2023/04/12 10:05:03;;;;;;;;;;;23.00;35.90;;;;;;4989748;28;19924;-54
2023/04/12 10:07:28;;;;;;;;;;;23.10;35.50;;;;;;5000903;28;19914;-54
2023/04/12 10:09:53;;;;;;;;;;;23.20;35.10;;;;;;4994759;28;19992;-54
2023/04/12 10:12:19;;;;;;;;;;;23.10;34.90;;;;;;4991914;28;20283;-53
2023/04/12 10:14:44;;;;;;;;;;;23.10;35.20;;;;;;5016836;28;19917;-54
2023/04/12 10:17:10;;;;;;;;;;;23.00;35.80;;;;;;4994409;28;19922;-55
2023/04/12 10:19:35;;;;;;;;;;;22.90;35.90;;;;;;5001717;28;19913;-54
2023/04/12 10:22:01;;;;;;;;;;;22.90;36.10;;;;;;5032852;28;19913;-53
2023/04/12 10:24:27;;;;;;;;;;;23.00;35.90;;;;;;4990813;28;20469;-54
2023/04/12 10:26:54;;;;;;;;;;;23.30;36.00;;;;;;4990581;28;20009;-54
2023/04/12 10:29:26;;;;;;;;;;;23.50;35.40;;;;;;4983641;28;19918;-54
2023/04/12 10:31:52;;;;;;;;;;;23.70;35.40;;;;;;4997397;28;19913;-54
2023/04/12 10:34:22;;;;;;;;;;;23.80;35.40;;;;;;4993664;28;19929;-54
2023/04/12 10:36:51;;;;;;;;;;;23.80;35.30;;;;;;5021091;28;19976;-54
2023/04/12 10:39:17;;;;;;;;;;;23.90;35.40;;;;;;4992551;28;19922;-54
2023/04/12 10:42:02;;;;;;;;;;;24.00;35.50;;;;;;4995571;28;19921;-54
2023/04/12 10:44:28;;;;;;;;;;;24.00;35.40;;;;;;4988705;28;19945;-54
2023/04/12 10:46:53;;;;;;;;;;;24.10;35.10;;;;;;4994527;28;20173;-54
2023/04/12 10:49:19;;;;;;;;;;;24.20;35.10;;;;;;4993688;28;20567;-53
2023/04/12 10:52:02;;;;;;;;;;;24.30;35.10;;;;;;4999124;28;20340;-54
2023/04/12 10:54:30;;;;;;;;;;;24.30;35.10;;;;;;4991217;28;19920;-54
2023/04/12 10:56:56;;;;;;;;;;;24.30;35.10;;;;;;5005893;28;19925;-54
2023/04/12 10:59:21;;;;;;;;;;;24.30;35.20;;;;;;4995268;28;19914;-53
2023/04/12 11:02:06;;;;;;;;;;;24.10;35.50;;;;;;4993015;28;19914;-53
2023/04/12 11:04:31;;;;;;;;;;;23.80;35.80;;;;;;4993454;28;19914;-53
2023/04/12 11:07:08;;;;;;;;;;;23.80;36.30;;;;;;4993219;28;20332;-54
2023/04/12 11:09:38;;;;;;;;;;;23.80;36.20;;;;;;4993529;28;19957;-53
2023/04/12 11:12:04;;;;;;;;;;;23.90;36.20;;;;;;5003128;28;19953;-54
2023/04/12 11:14:36;;;;;;;;;;;23.90;36.20;;;;;;4992588;28;19967;-53
2023/04/12 11:17:05;;;;;;;;;;;24.00;36.00;;;;;;4991432;28;20420;-54
2023/04/12 11:19:37;;;;;;;;;;;24.10;36.00;;;;;;4987488;28;19914;-55
2023/04/12 11:22:06;;;;;;;;;;;24.20;35.90;;;;;;4993085;28;20369;-54
2023/04/12 11:24:32;;;;;;;;;;;24.10;35.80;;;;;;5028696;28;20032;-54
2023/04/12 11:26:58;;;;;;;;;;;24.20;36.00;;;;;;4986517;28;19976;-54
2023/04/12 11:29:24;;;;;;;;;;;24.30;35.90;;;;;;4989887;28;19922;-55
2023/04/12 11:31:49;;;;;;;;;;;24.20;35.90;;;;;;5000328;28;19910;-55
2023/04/12 11:34:18;;;;;;;;;;;24.20;36.00;;;;;;5005869;28;19917;-55
2023/04/12 11:36:52;;;;;;;;;;;24.30;36.10;;;;;;4993648;28;20370;-55
2023/04/12 11:39:18;;;;;;;;;;;24.30;36.10;;;;;;5004870;28;19921;-55
2023/04/12 11:41:44;;;;;;;;;;;24.20;36.20;;;;;;5000635;28;19926;-55
2023/04/12 11:44:10;;;;;;;;;;;24.30;36.10;;;;;;5007355;28;19976;-55
2023/04/12 11:46:35;;;;;;;;;;;24.30;36.10;;;;;;4989888;28;20345;-54
2023/04/12 11:49:01;;;;;;;;;;;24.30;36.10;;;;;;5027918;28;19921;-55
2023/04/12 11:51:29;;;;;;;;;;;24.30;36.10;;;;;;4991988;28;19976;-54
2023/04/12 11:53:55;;;;;;;;;;;24.30;36.10;;;;;;4987842;28;19922;-54
2023/04/12 11:56:21;;;;;;;;;;;24.30;36.10;;;;;;4991010;28;20345;-55
2023/04/12 11:58:46;;;;;;;;;;;24.30;36.20;;;;;;4994041;28;20016;-55
2023/04/12 12:01:15;;;;;;;;;;;24.40;36.20;;;;;;4999095;28;19919;-55
2023/04/12 12:03:40;;;;;;;;;;;24.40;36.20;;;;;;4997765;28;20378;-55
2023/04/12 12:06:06;;;;;;;;;;;24.40;36.20;;;;;;4996423;28;19914;-55
2023/04/12 12:08:32;;;;;;;;;;;24.40;36.00;;;;;;4991085;28;19968;-55
2023/04/12 12:10:57;;;;;;;;;;;24.50;36.00;;;;;;4993759;28;20322;-54
2023/04/12 12:13:23;;;;;;;;;;;24.60;35.90;;;;;;4991890;28;20311;-54
2023/04/12 12:15:50;;;;;;;;;;;24.60;35.90;;;;;;5021204;28;19936;-54
2023/04/12 12:18:15;;;;;;;;;;;24.60;35.90;;;;;;4984951;28;19917;-54
2023/04/12 12:20:41;;;;;;;;;;;24.70;36.00;;;;;;4988794;28;20353;-56
2023/04/12 12:23:07;;;;;;;;;;;24.70;36.10;;;;;;4994224;28;20421;-55
2023/04/12 12:25:32;;;;;;;;;;;24.80;36.00;;;;;;4989010;28;19914;-55
2023/04/12 12:27:58;;;;;;;;;;;24.70;36.00;;;;;;5019167;28;20247;-55
2023/04/12 12:30:23;;;;;;;;;;;24.70;36.10;;;;;;4989299;28;19929;-55
2023/04/12 12:32:49;;;;;;;;;;;24.80;36.10;;;;;;4991857;28;19964;-55
2023/04/12 12:35:14;;;;;;;;;;;24.80;36.20;;;;;;4990237;28;19928;-55
2023/04/12 12:37:50;;;;;;;;;;;24.80;36.20;;;;;;5001487;28;19913;-56
2023/04/12 12:40:16;;;;;;;;;;;24.70;36.30;;;;;;4993284;28;20309;-55
2023/04/12 12:42:45;;;;;;;;;;;24.80;36.50;;;;;;4994765;28;20004;-54
2023/04/12 12:45:11;;;;;;;;;;;24.80;36.50;;;;;;4988638;28;19914;-54
2023/04/12 12:47:47;;;;;;;;;;;24.70;36.60;;;;;;4988082;28;19921;-55
2023/04/12 12:50:13;;;;;;;;;;;24.70;36.60;;;;;;4991266;28;19917;-55
2023/04/12 12:52:38;;;;;;;;;;;24.70;36.70;;;;;;4991452;28;20405;-55
2023/04/12 12:55:04;;;;;;;;;;;24.70;36.70;;;;;;4991356;28;20014;-55
2023/04/12 12:57:30;;;;;;;;;;;24.70;36.70;;;;;;4994728;28;19940;-55
2023/04/12 12:59:56;;;;;;;;;;;24.70;36.90;;;;;;4987458;28;20273;-55
2023/04/12 13:02:21;;;;;;;;;;;24.50;37.10;;;;;;4989805;28;19921;-55
2023/04/12 13:04:47;;;;;;;;;;;24.50;37.20;;;;;;5001290;28;19917;-54
2023/04/12 13:07:12;;;;;;;;;;;24.50;37.10;;;;;;4995940;28;19920;-54
2023/04/12 13:09:37;;;;;;;;;;;24.50;37.10;;;;;;4990075;28;20005;-55
2023/04/12 13:12:03;;;;;;;;;;;24.60;37.10;;;;;;4991817;28;20370;-55
2023/04/12 13:14:29;;;;;;;;;;;24.70;36.90;;;;;;4982913;28;20398;-55
2023/04/12 13:16:55;;;;;;;;;;;24.70;36.80;;;;;;4990972;28;19922;-55
2023/04/12 13:19:20;;;;;;;;;;;24.70;36.70;;;;;;4995742;28;19914;-55
2023/04/12 13:21:46;;;;;;;;;;;24.80;36.70;;;;;;5002536;28;20032;-55
2023/04/12 13:24:12;;;;;;;;;;;24.70;36.90;;;;;;5023340;28;19924;-55
2023/04/12 13:26:37;;;;;;;;;;;24.70;37.10;;;;;;4998365;28;19914;-56
2023/04/12 13:29:03;;;;;;;;;;;24.60;37.10;;;;;;4991164;28;19921;-55
2023/04/12 13:31:28;;;;;;;;;;;24.70;37.20;;;;;;4998082;28;20306;-54
2023/04/12 13:33:54;;;;;;;;;;;24.80;37.00;;;;;;4998123;28;20017;-55
2023/04/12 13:36:19;;;;;;;;;;;24.80;37.00;;;;;;5004716;28;19925;-55
2023/04/12 13:38:45;;;;;;;;;;;24.90;36.90;;;;;;5008485;28;20290;-55
2023/04/12 13:41:10;;;;;;;;;;;24.90;36.90;;;;;;4991164;28;19921;-54
2023/04/12 13:43:36;;;;;;;;;;;24.90;36.90;;;;;;4996357;28;19917;-55
2023/04/12 13:46:01;;;;;;;;;;;24.80;37.10;;;;;;4993718;28;20366;-54
2023/04/12 13:48:27;;;;;;;;;;;24.90;37.10;;;;;;4995002;28;19925;-55
2023/04/12 13:50:53;;;;;;;;;;;24.80;37.20;;;;;;4986271;28;19920;-54
2023/04/12 13:53:19;;;;;;;;;;;24.70;37.30;;;;;;4991467;28;20355;-55
2023/04/12 13:55:45;;;;;;;;;;;24.60;37.40;;;;;;4991991;28;19922;-54
2023/04/12 13:58:10;;;;;;;;;;;24.40;37.60;;;;;;4992574;28;19918;-55
2023/04/12 14:00:36;;;;;;;;;;;24.30;37.90;;;;;;4997315;28;20326;-55
2023/04/12 14:03:01;;;;;;;;;;;24.30;38.20;;;;;;5006856;28;19917;-54
2023/04/12 14:05:27;;;;;;;;;;;24.40;38.00;;;;;;4991511;28;19921;-55
2023/04/12 14:07:54;;;;;;;;;;;24.50;37.70;;;;;;4991022;28;19999;-55
2023/04/12 14:10:19;;;;;;;;;;;24.70;37.40;;;;;;4995899;28;20421;-55
2023/04/12 14:12:45;;;;;;;;;;;24.70;37.40;;;;;;4997258;28;19968;-55